createdAt,value
2024-02-03T00:00:07.193Z,8.40
2024-02-03T00:01:39.463Z,8.40
2024-02-03T00:03:12.530Z,8.40
2024-02-03T00:04:44.738Z,8.30
2024-02-03T00:06:18.445Z,8.30
2024-02-03T00:07:50.519Z,8.30
2024-02-03T00:09:23.630Z,8.30
2024-02-03T00:10:59.895Z,8.30
2024-02-03T00:12:32.440Z,8.30
2024-02-03T00:14:09.101Z,8.30
2024-02-03T00:15:41.569Z,8.30
2024-02-03T00:17:14.773Z,8.30
2024-02-03T00:18:46.951Z,8.30
2024-02-03T00:20:20.827Z,8.30
2024-02-03T00:21:52.970Z,8.30
2024-02-03T00:23:26.507Z,8.30
2024-02-03T00:24:58.655Z,8.30
2024-02-03T00:26:31.821Z,8.30
2024-02-03T00:28:04.856Z,8.30
2024-02-03T00:29:39.333Z,8.30
2024-02-03T00:31:11.967Z,8.30
2024-02-03T00:32:45.279Z,8.30
2024-02-03T00:34:17.356Z,8.30
2024-02-03T00:35:50.382Z,8.30
2024-02-03T00:37:22.373Z,8.20
2024-02-03T00:38:55.432Z,8.20
2024-02-03T00:40:27.490Z,8.20
2024-02-03T00:42:00.560Z,8.20
2024-02-03T00:43:33.133Z,8.20
2024-02-03T00:45:08.815Z,8.20
2024-02-03T00:46:40.948Z,8.30
2024-02-03T00:48:14.179Z,8.30
2024-02-03T00:49:46.162Z,8.30
2024-02-03T00:51:19.313Z,8.30
2024-02-03T00:52:52.304Z,8.20
2024-02-03T00:54:25.084Z,8.20
2024-02-03T00:55:58.119Z,8.20
2024-02-03T00:57:31.153Z,8.30
2024-02-03T00:59:04.342Z,8.20
2024-02-03T01:00:38.862Z,8.20
2024-02-03T01:02:11.040Z,8.10
2024-02-03T01:03:44.697Z,8.20
2024-02-03T01:05:16.858Z,8.20
2024-02-03T01:06:50.913Z,8.20
2024-02-03T01:08:23.596Z,8.20
2024-02-03T01:09:56.698Z,8.30
2024-02-03T01:11:28.946Z,8.20
2024-02-03T01:13:03.523Z,8.20
2024-02-03T01:14:35.919Z,8.20
2024-02-03T01:16:10.718Z,8.20
2024-02-03T01:17:42.938Z,8.20
2024-02-03T01:19:16.578Z,8.20
2024-02-03T01:20:48.829Z,8.20
2024-02-03T01:22:21.951Z,8.20
2024-02-03T01:23:55.505Z,8.30
2024-02-03T01:25:28.601Z,8.30
2024-02-03T01:27:01.667Z,8.30
2024-02-03T01:28:33.729Z,8.30
2024-02-03T01:30:07.928Z,8.30
2024-02-03T01:31:41.415Z,8.30
2024-02-03T01:33:14.836Z,8.20
2024-02-03T01:34:46.918Z,8.30
2024-02-03T01:36:19.970Z,8.30
2024-02-03T01:37:52.018Z,8.30
2024-02-03T01:39:25.106Z,8.30
2024-02-03T01:40:57.191Z,8.30
2024-02-03T01:42:30.387Z,8.30
2024-02-03T01:44:02.720Z,8.30
2024-02-03T01:45:35.906Z,8.30
2024-02-03T01:47:10.887Z,8.30
2024-02-03T01:48:43.751Z,8.30
2024-02-03T01:50:16.907Z,8.30
2024-02-03T01:51:50.044Z,8.30
2024-02-03T01:53:23.029Z,8.30
2024-02-03T01:54:56.752Z,8.30
2024-02-03T01:56:28.912Z,8.30
2024-02-03T01:58:03.731Z,8.30
2024-02-03T01:59:36.673Z,8.30
2024-02-03T02:01:10.472Z,8.30
2024-02-03T02:02:44.049Z,8.30
2024-02-03T02:04:17.564Z,8.30
2024-02-03T02:05:49.870Z,8.30
2024-02-03T02:07:22.988Z,8.30
2024-02-03T02:08:55.038Z,8.30
2024-02-03T02:10:28.404Z,8.30
2024-02-03T02:12:01.471Z,8.30
2024-02-03T02:13:34.163Z,8.30
2024-02-03T02:15:07.947Z,8.30
2024-02-03T02:16:40.271Z,8.30
2024-02-03T02:18:14.909Z,8.30
2024-02-03T02:19:48.310Z,8.30
2024-02-03T02:21:22.917Z,8.30
2024-02-03T02:22:55.195Z,8.20
2024-02-03T02:24:28.633Z,8.30
2024-02-03T02:26:01.547Z,8.30
2024-02-03T02:27:35.130Z,8.20
2024-02-03T02:29:07.311Z,8.30
2024-02-03T02:30:41.293Z,8.30
2024-02-03T02:32:13.406Z,8.30
2024-02-03T02:33:46.497Z,8.30
2024-02-03T02:35:18.695Z,8.30
2024-02-03T02:36:53.223Z,8.30
2024-02-03T02:38:25.349Z,8.30
2024-02-03T02:39:58.491Z,8.30
2024-02-03T02:41:30.572Z,8.20
2024-02-03T02:43:05.443Z,8.30
2024-02-03T02:44:37.454Z,8.20
2024-02-03T02:46:11.262Z,8.20
2024-02-03T02:47:43.301Z,8.30
2024-02-03T02:49:16.438Z,8.20
2024-02-03T02:50:48.547Z,8.30
2024-02-03T02:52:22.964Z,8.30
2024-02-03T02:53:55.151Z,8.20
2024-02-03T02:55:28.650Z,8.20
2024-02-03T02:57:01.004Z,8.20
2024-02-03T02:58:34.331Z,8.20
2024-02-03T03:00:06.961Z,8.20
2024-02-03T03:01:40.908Z,8.20
2024-02-03T03:03:16.977Z,8.20
2024-02-03T03:04:49.613Z,8.20
2024-02-03T03:06:23.232Z,8.20
2024-02-03T03:07:57.363Z,8.20
2024-02-03T03:09:33.429Z,8.20
2024-02-03T03:11:05.826Z,8.20
2024-02-03T03:12:39.391Z,8.10
2024-02-03T03:14:12.325Z,8.10
2024-02-03T03:15:45.890Z,8.10
2024-02-03T03:17:18.337Z,8.10
2024-02-03T03:18:51.815Z,8.20
2024-02-03T03:20:24.141Z,8.10
2024-02-03T03:21:57.585Z,8.10
2024-02-03T03:23:33.826Z,8.10
2024-02-03T03:25:07.590Z,8.10
2024-02-03T03:26:43.155Z,8.10
2024-02-03T03:28:16.615Z,8.00
2024-02-03T03:29:50.266Z,8.10
2024-02-03T03:31:23.166Z,8.10
2024-02-03T03:32:55.605Z,8.10
2024-02-03T03:34:29.252Z,8.00
2024-02-03T03:36:01.485Z,8.10
2024-02-03T03:37:34.615Z,8.10
2024-02-03T03:39:09.980Z,8.10
2024-02-03T03:40:43.242Z,8.10
2024-02-03T03:42:15.491Z,8.10
2024-02-03T03:43:50.152Z,8.10
2024-02-03T03:45:22.657Z,8.00
2024-02-03T03:46:56.485Z,8.10
2024-02-03T03:48:30.322Z,8.10
2024-02-03T03:50:02.713Z,8.10
2024-02-03T03:51:35.967Z,8.10
2024-02-03T03:53:08.157Z,8.10
2024-02-03T03:54:45.269Z,8.00
2024-02-03T03:56:20.001Z,8.10
2024-02-03T03:57:53.246Z,8.10
2024-02-03T03:59:26.271Z,8.10
2024-02-03T04:00:59.619Z,8.10
2024-02-03T04:02:32.072Z,8.00
2024-02-03T04:04:08.250Z,8.10
2024-02-03T04:07:13.950Z,8.00
2024-02-03T04:08:46.427Z,8.00
2024-02-03T04:10:20.960Z,8.10
2024-02-03T04:11:53.344Z,8.00
2024-02-03T04:13:26.868Z,8.00
2024-02-03T04:15:02.141Z,8.00
2024-02-03T04:16:37.994Z,8.10
2024-02-03T04:18:10.847Z,8.10
2024-02-03T04:19:44.821Z,8.10
2024-02-03T04:21:18.665Z,8.10
2024-02-03T04:22:50.964Z,8.10
2024-02-03T04:24:24.281Z,8.10
2024-02-03T04:25:59.090Z,8.00
2024-02-03T04:27:31.361Z,8.00
2024-02-03T04:29:04.701Z,8.00
2024-02-03T04:30:41.838Z,7.90
2024-02-03T04:32:15.371Z,8.00
2024-02-03T04:33:48.128Z,7.90
2024-02-03T04:35:21.930Z,8.00
2024-02-03T04:36:55.133Z,8.00
2024-02-03T04:38:27.244Z,8.00
2024-02-03T04:40:03.668Z,8.00
2024-02-03T04:41:38.379Z,8.00
2024-02-03T04:43:10.473Z,8.00
2024-02-03T04:44:43.813Z,8.00
2024-02-03T04:46:15.749Z,8.00
2024-02-03T04:47:49.194Z,7.90
2024-02-03T04:49:22.327Z,7.90
2024-02-03T04:50:54.465Z,7.90
2024-02-03T04:52:27.381Z,7.90
2024-02-03T04:54:00.439Z,7.90
2024-02-03T04:55:32.426Z,7.80
2024-02-03T04:57:07.137Z,7.90
2024-02-03T04:58:39.226Z,7.90
2024-02-03T05:00:14.208Z,7.90
2024-02-03T05:01:46.253Z,7.80
2024-02-03T05:03:19.309Z,7.90
2024-02-03T05:04:51.400Z,7.90
2024-02-03T05:06:24.427Z,7.90
2024-02-03T05:07:56.364Z,7.90
2024-02-03T05:09:29.308Z,7.90
2024-02-03T05:11:02.785Z,7.90
2024-02-03T05:12:36.198Z,7.90
2024-02-03T05:14:09.162Z,7.90
2024-02-03T05:15:41.138Z,7.80
2024-02-03T05:17:14.104Z,7.80
2024-02-03T05:18:46.218Z,7.90
2024-02-03T05:20:19.259Z,7.80
2024-02-03T05:21:51.361Z,7.80
2024-02-03T05:23:24.403Z,7.80
2024-02-03T05:24:56.520Z,7.90
2024-02-03T05:26:29.553Z,7.80
2024-02-03T05:28:03.237Z,7.80
2024-02-03T05:29:36.311Z,7.90
2024-02-03T05:31:08.234Z,7.80
2024-02-03T05:32:41.160Z,7.80
2024-02-03T05:34:13.711Z,7.90
2024-02-03T05:35:46.833Z,7.90
2024-02-03T05:37:19.752Z,7.90
2024-02-03T05:38:52.796Z,7.90
2024-02-03T05:40:25.530Z,7.90
2024-02-03T05:41:58.555Z,7.90
2024-02-03T05:43:31.941Z,7.90
2024-02-03T05:45:04.993Z,7.90
2024-02-03T05:46:36.986Z,7.80
2024-02-03T05:48:10.335Z,7.80
2024-02-03T05:49:42.639Z,7.80
2024-02-03T05:51:15.819Z,7.80
2024-02-03T05:52:47.862Z,7.80
2024-02-03T05:54:20.981Z,7.70
2024-02-03T05:55:52.987Z,7.70
2024-02-03T05:57:26.021Z,7.70
2024-02-03T05:59:13.915Z,7.70
2024-02-03T06:00:52.319Z,7.70
2024-02-03T06:02:25.291Z,7.70
2024-02-03T06:03:57.389Z,7.70
2024-02-03T06:05:30.377Z,7.70
2024-02-03T06:07:03.432Z,7.70
2024-02-03T06:08:36.515Z,7.70
2024-02-03T06:10:09.014Z,7.70
2024-02-03T06:11:42.093Z,7.70
2024-02-03T06:13:14.030Z,7.70
2024-02-03T06:14:48.290Z,7.60
2024-02-03T06:16:20.316Z,7.60
2024-02-03T06:17:53.272Z,7.60
2024-02-03T06:19:25.411Z,7.60
2024-02-03T06:20:58.554Z,7.60
2024-02-03T06:22:30.608Z,7.60
2024-02-03T06:24:03.824Z,7.60
2024-02-03T06:25:35.767Z,7.60
2024-02-03T06:27:08.867Z,7.60
2024-02-03T06:28:40.828Z,7.50
2024-02-03T06:30:15.773Z,7.50
2024-02-03T06:31:47.760Z,7.50
2024-02-03T06:33:20.953Z,7.50
2024-02-03T06:34:54.003Z,7.60
2024-02-03T06:36:26.136Z,7.60
2024-02-03T06:37:59.294Z,7.60
2024-02-03T06:39:31.504Z,7.60
2024-02-03T06:41:04.718Z,7.50
2024-02-03T06:42:36.795Z,7.50
2024-02-03T06:44:10.432Z,7.50
2024-02-03T06:45:43.835Z,7.60
2024-02-03T06:47:16.721Z,7.50
2024-02-03T06:48:48.767Z,7.50
2024-02-03T06:50:22.193Z,7.40
2024-02-03T06:51:54.428Z,7.40
2024-02-03T06:53:27.724Z,7.40
2024-02-03T06:54:59.739Z,7.40
2024-02-03T06:56:32.813Z,7.40
2024-02-03T06:58:06.144Z,7.40
2024-02-03T06:59:37.960Z,7.30
2024-02-03T07:01:12.318Z,7.30
2024-02-03T07:02:44.388Z,7.30
2024-02-03T07:04:17.478Z,7.30
2024-02-03T07:05:49.623Z,7.30
2024-02-03T07:07:22.599Z,7.30
2024-02-03T07:08:54.613Z,7.20
2024-02-03T07:10:27.608Z,7.30
2024-02-03T07:12:06.942Z,7.30
2024-02-03T07:13:42.557Z,7.30
2024-02-03T07:15:14.720Z,7.30
2024-02-03T07:16:49.013Z,7.30
2024-02-03T07:18:21.510Z,7.20
2024-02-03T07:19:55.212Z,7.20
2024-02-03T07:21:27.109Z,7.30
2024-02-03T07:23:00.271Z,7.30
2024-02-03T07:24:32.454Z,7.30
2024-02-03T07:26:06.176Z,7.30
2024-02-03T07:27:38.518Z,7.30
2024-02-03T07:29:11.575Z,7.30
2024-02-03T07:30:43.693Z,7.30
2024-02-03T07:32:18.112Z,7.30
2024-02-03T07:33:50.198Z,7.30
2024-02-03T07:35:23.726Z,7.30
2024-02-03T07:36:56.708Z,7.30
2024-02-03T07:38:29.844Z,7.30
2024-02-03T07:40:01.891Z,7.30
2024-02-03T07:41:34.879Z,7.40
2024-02-03T07:43:07.085Z,7.40
2024-02-03T07:44:40.145Z,7.40
2024-02-03T07:46:12.373Z,7.40
2024-02-03T07:47:46.936Z,7.40
2024-02-03T07:49:19.051Z,7.40
2024-02-03T07:50:52.219Z,7.30
2024-02-03T07:52:24.405Z,7.40
2024-02-03T07:53:57.523Z,7.40
2024-02-03T07:55:29.592Z,7.50
2024-02-03T07:57:02.745Z,7.50
2024-02-03T07:58:34.828Z,7.50
2024-02-03T08:00:09.349Z,7.50
2024-02-03T08:01:42.367Z,7.60
2024-02-03T08:03:15.800Z,7.60
2024-02-03T08:04:48.963Z,7.60
2024-02-03T08:06:21.206Z,7.60
2024-02-03T08:07:54.533Z,7.60
2024-02-03T08:09:26.386Z,7.60
2024-02-03T08:10:59.349Z,7.50
2024-02-03T08:12:32.572Z,7.50
2024-02-03T08:14:05.740Z,7.50
2024-02-03T08:15:37.748Z,7.50
2024-02-03T08:17:10.727Z,7.50
2024-02-03T08:18:44.148Z,7.40
2024-02-03T08:20:17.283Z,7.40
2024-02-03T08:21:49.851Z,7.40
2024-02-03T08:23:22.964Z,7.50
2024-02-03T08:24:55.118Z,7.50
2024-02-03T08:26:28.180Z,7.50
2024-02-03T08:28:00.725Z,7.50
2024-02-03T08:29:33.757Z,7.50
2024-02-03T08:31:05.809Z,7.60
2024-02-03T08:32:39.034Z,7.50
2024-02-03T08:34:12.621Z,7.60
2024-02-03T08:35:46.084Z,7.50
2024-02-03T08:37:18.649Z,7.50
2024-02-03T08:38:52.488Z,7.50
2024-02-03T08:40:25.662Z,7.40
2024-02-03T08:41:58.725Z,7.40
2024-02-03T08:43:30.968Z,7.40
2024-02-03T08:45:04.048Z,7.40
2024-02-03T08:46:36.056Z,7.40
2024-02-03T08:48:09.241Z,7.50
2024-02-03T08:49:52.632Z,7.40
2024-02-03T08:51:25.619Z,7.40
2024-02-03T08:52:57.675Z,7.50
2024-02-03T08:54:30.652Z,7.50
2024-02-03T08:56:06.509Z,7.60
2024-02-03T08:57:40.169Z,7.60
2024-02-03T08:59:12.188Z,7.50
2024-02-03T09:00:45.486Z,7.60
2024-02-03T09:02:17.370Z,7.60
2024-02-03T09:03:53.775Z,7.60
2024-02-03T09:05:27.939Z,7.70
2024-02-03T09:07:00.996Z,7.70
2024-02-03T09:08:33.104Z,7.60
2024-02-03T09:10:06.894Z,7.70
2024-02-03T09:11:38.940Z,7.70
2024-02-03T09:13:11.881Z,7.80
2024-02-03T09:14:43.895Z,7.80
2024-02-03T09:16:16.998Z,7.80
2024-02-03T09:17:51.410Z,7.80
2024-02-03T09:19:24.703Z,7.80
2024-02-03T09:20:58.032Z,7.80
2024-02-03T09:22:30.970Z,7.80
2024-02-03T09:24:03.072Z,7.80
2024-02-03T09:25:36.034Z,7.80
2024-02-03T09:27:08.191Z,7.80
2024-02-03T09:28:41.807Z,7.80
2024-02-03T09:30:14.411Z,7.80
2024-02-03T09:31:47.662Z,7.80
2024-02-03T09:33:19.766Z,7.80
2024-02-03T09:34:52.827Z,7.80
2024-02-03T09:36:26.203Z,7.80
2024-02-03T09:38:00.096Z,7.80
2024-02-03T09:39:33.549Z,7.80
2024-02-03T09:41:07.156Z,7.90
2024-02-03T09:42:39.293Z,7.90
2024-02-03T09:44:12.932Z,7.90
2024-02-03T09:45:45.494Z,7.80
2024-02-03T09:47:19.179Z,7.90
2024-02-03T09:48:52.171Z,7.90
2024-02-03T09:50:24.212Z,7.90
2024-02-03T09:52:00.153Z,7.90
2024-02-03T09:53:32.166Z,7.90
2024-02-03T09:55:06.921Z,7.90
2024-02-03T09:56:39.626Z,8.00
2024-02-03T09:58:12.543Z,8.10
2024-02-03T09:59:50.517Z,8.10
2024-02-03T10:01:23.946Z,8.20
2024-02-03T10:02:55.965Z,8.30
2024-02-03T10:04:41.912Z,8.40
2024-02-03T10:06:16.072Z,8.50
2024-02-03T10:07:59.649Z,8.60
2024-02-03T10:10:51.594Z,8.80
2024-02-03T10:11:24.677Z,8.90
2024-02-03T10:13:08.884Z,9.10
2024-02-03T10:14:41.856Z,9.20
2024-02-03T10:16:13.766Z,9.20
2024-02-03T10:17:46.788Z,9.20
2024-02-03T10:19:19.604Z,9.30
2024-02-03T10:20:52.540Z,9.30
2024-02-03T10:22:24.733Z,9.30
2024-02-03T10:23:58.947Z,9.30
2024-02-03T10:25:32.590Z,9.30
2024-02-03T10:27:06.823Z,9.40
2024-02-03T10:28:42.786Z,9.50
2024-02-03T10:30:20.864Z,9.60
2024-02-03T10:31:53.868Z,9.70
2024-02-03T10:33:26.001Z,9.90
2024-02-03T10:34:58.990Z,9.80
2024-02-03T10:36:30.983Z,9.80
2024-02-03T10:38:04.355Z,9.80
2024-02-03T10:39:39.822Z,9.80
2024-02-03T10:41:13.737Z,9.80
2024-02-03T10:42:47.542Z,9.90
2024-02-03T10:44:24.770Z,9.90
2024-02-03T10:46:01.696Z,9.90
2024-02-03T10:47:39.795Z,10.00
2024-02-03T10:49:17.774Z,10.00
2024-02-03T10:51:01.474Z,10.00
2024-02-03T10:52:34.303Z,10.10
2024-02-03T10:54:15.662Z,10.10
2024-02-03T10:55:56.261Z,10.20
2024-02-03T10:57:29.647Z,10.20
2024-02-03T10:59:05.913Z,10.20
2024-02-03T11:00:39.062Z,10.20
2024-02-03T11:02:18.975Z,10.20
2024-02-03T11:03:53.786Z,10.00
2024-02-03T11:05:26.644Z,9.90
2024-02-03T11:07:00.236Z,9.80
2024-02-03T11:08:33.559Z,9.70
2024-02-03T11:10:07.166Z,9.70
2024-02-03T11:11:42.464Z,9.60
2024-02-03T11:13:19.261Z,9.50
2024-02-03T11:14:51.308Z,9.40
2024-02-03T11:16:24.300Z,9.40
2024-02-03T11:17:56.295Z,9.40
2024-02-03T11:19:30.903Z,9.30
2024-02-03T11:21:06.678Z,9.40
2024-02-03T11:22:42.185Z,9.40
2024-02-03T11:24:14.178Z,9.40
2024-02-03T11:25:50.738Z,9.50
2024-02-03T11:27:24.159Z,9.50
2024-02-03T11:28:59.711Z,9.50
2024-02-03T11:30:33.055Z,9.50
2024-02-03T11:32:08.071Z,9.50
2024-02-03T11:33:44.761Z,9.50
2024-02-03T11:35:18.581Z,9.50
2024-02-03T11:36:50.662Z,9.50
2024-02-03T11:38:23.706Z,9.40
2024-02-03T11:39:56.695Z,9.30
2024-02-03T11:41:30.179Z,9.30
2024-02-03T11:43:03.825Z,9.20
2024-02-03T11:44:38.395Z,9.20
2024-02-03T11:46:11.750Z,9.20
2024-02-03T11:47:45.010Z,9.20
2024-02-03T11:49:17.889Z,9.20
2024-02-03T11:50:51.509Z,9.20
2024-02-03T11:52:26.394Z,9.20
2024-02-03T11:54:04.816Z,9.20
2024-02-03T11:55:39.529Z,9.20
2024-02-03T11:57:12.634Z,9.20
2024-02-03T11:58:46.944Z,9.20
2024-02-03T12:00:19.713Z,9.40
2024-02-03T12:01:52.876Z,9.30
2024-02-03T12:03:25.878Z,9.30
2024-02-03T12:04:59.493Z,9.30
2024-02-03T12:06:31.808Z,9.30
2024-02-03T12:08:05.465Z,9.30
2024-02-03T12:09:37.544Z,9.20
2024-02-03T12:11:13.723Z,9.10
2024-02-03T12:12:46.526Z,9.10
2024-02-03T12:14:21.819Z,9.10
2024-02-03T12:15:54.034Z,9.00
2024-02-03T12:17:27.807Z,9.00
2024-02-03T12:18:59.844Z,9.00
2024-02-03T12:20:33.033Z,9.00
2024-02-03T12:22:06.674Z,8.90
2024-02-03T12:23:39.625Z,8.90
2024-02-03T12:25:12.690Z,8.90
2024-02-03T12:26:44.737Z,9.00
2024-02-03T12:28:18.926Z,9.00
2024-02-03T12:29:52.695Z,9.00
2024-02-03T12:31:25.644Z,9.00
2024-02-03T12:32:57.687Z,9.00
2024-02-03T12:34:31.313Z,9.00
2024-02-03T12:36:03.898Z,9.00
2024-02-03T12:37:37.165Z,9.00
2024-02-03T12:39:12.518Z,8.90
2024-02-03T12:40:44.510Z,8.90
2024-02-03T12:42:17.541Z,8.90
2024-02-03T12:43:49.555Z,8.90
2024-02-03T12:45:24.056Z,8.90
2024-02-03T12:46:56.126Z,8.80
2024-02-03T12:48:29.261Z,8.80
2024-02-03T12:50:01.807Z,8.80
2024-02-03T12:51:35.093Z,8.80
2024-02-03T12:53:07.319Z,8.90
2024-02-03T12:54:40.272Z,8.90
2024-02-03T12:56:12.749Z,9.00
2024-02-03T12:57:46.417Z,9.00
2024-02-03T12:59:18.406Z,8.90
2024-02-03T13:00:52.954Z,9.00
2024-02-03T13:02:24.957Z,9.00
2024-02-03T13:03:58.113Z,9.00
2024-02-03T13:05:30.403Z,9.00
2024-02-03T13:07:03.843Z,9.00
2024-02-03T13:08:35.936Z,9.10
2024-02-03T13:10:09.433Z,9.00
2024-02-03T13:11:41.472Z,9.00
2024-02-03T13:13:14.467Z,9.00
2024-02-03T13:14:47.903Z,9.00
2024-02-03T13:16:21.317Z,8.90
2024-02-03T13:17:54.328Z,8.90
2024-02-03T13:19:27.326Z,8.90
2024-02-03T13:20:59.550Z,8.90
2024-02-03T13:22:32.554Z,9.00
2024-02-03T13:24:04.660Z,8.90
2024-02-03T13:25:37.565Z,8.90
2024-02-03T13:27:09.590Z,8.90
2024-02-03T13:28:42.907Z,8.90
2024-02-03T13:30:16.955Z,8.90
2024-02-03T13:31:50.317Z,9.00
2024-02-03T13:33:23.193Z,9.00
2024-02-03T13:34:55.475Z,9.00
2024-02-03T13:36:28.556Z,9.00
2024-02-03T13:38:00.633Z,9.00
2024-02-03T13:39:35.513Z,9.00
2024-02-03T13:41:10.205Z,9.00
2024-02-03T13:42:50.582Z,9.10
2024-02-03T13:44:23.626Z,9.10
2024-02-03T13:45:55.806Z,9.20
2024-02-03T13:47:30.156Z,9.20
2024-02-03T13:49:03.078Z,9.10
2024-02-03T13:50:36.236Z,9.10
2024-02-03T13:52:09.411Z,9.10
2024-02-03T13:53:42.413Z,9.10
2024-02-03T13:55:15.009Z,9.10
2024-02-03T13:56:48.696Z,9.10
2024-02-03T13:58:20.668Z,9.20
2024-02-03T13:59:53.656Z,9.20
2024-02-03T14:01:28.845Z,9.20
2024-02-03T14:03:03.298Z,9.20
2024-02-03T14:04:35.544Z,9.20
2024-02-03T14:06:09.015Z,9.20
2024-02-03T14:07:41.863Z,9.20
2024-02-03T14:09:14.198Z,9.20
2024-02-03T14:10:47.257Z,9.20
2024-02-03T14:12:19.265Z,9.20
2024-02-03T14:13:52.231Z,9.20
2024-02-03T14:15:24.287Z,9.20
2024-02-03T14:16:57.268Z,9.20
2024-02-03T14:18:30.731Z,9.20
2024-02-03T14:20:04.980Z,9.10
2024-02-03T14:21:37.186Z,9.10
2024-02-03T14:23:10.410Z,9.10
2024-02-03T14:24:43.743Z,9.10
2024-02-03T14:26:15.567Z,9.10
2024-02-03T14:27:48.631Z,9.10
2024-02-03T14:29:21.512Z,9.20
2024-02-03T14:30:54.588Z,9.20
2024-02-03T14:32:26.673Z,9.20
2024-02-03T14:34:01.176Z,9.10
2024-02-03T14:35:33.469Z,9.20
2024-02-03T14:37:06.712Z,9.20
2024-02-03T14:38:38.833Z,9.20
2024-02-03T14:40:13.297Z,9.20
2024-02-03T14:41:45.334Z,9.10
2024-02-03T14:43:18.544Z,9.20
2024-02-03T14:44:50.680Z,9.10
2024-02-03T14:46:23.633Z,9.10
2024-02-03T14:47:55.608Z,9.10
2024-02-03T14:49:30.041Z,9.00
2024-02-03T14:51:02.354Z,9.00
2024-02-03T14:52:36.897Z,9.00
2024-02-03T14:54:09.132Z,9.00
2024-02-03T14:55:42.153Z,9.00
2024-02-03T14:57:14.249Z,9.00
2024-02-03T14:58:47.297Z,8.90
2024-02-03T15:00:19.765Z,8.90
2024-02-03T15:01:52.740Z,8.90
2024-02-03T15:03:25.066Z,8.90
2024-02-03T15:04:59.561Z,8.90
2024-02-03T15:06:31.650Z,8.90
2024-02-03T15:08:05.301Z,8.90
2024-02-03T15:09:37.385Z,8.80
2024-02-03T15:11:10.345Z,8.80
2024-02-03T15:12:42.387Z,8.80
2024-02-03T15:14:15.434Z,8.80
2024-02-03T15:15:47.448Z,8.80
2024-02-03T15:17:20.429Z,8.70
2024-02-03T15:18:53.482Z,8.70
2024-02-03T15:20:26.962Z,8.80
2024-02-03T15:21:59.971Z,8.80
2024-02-03T15:23:32.159Z,8.70
2024-02-03T15:25:05.914Z,8.70
2024-02-03T15:26:37.971Z,8.70
2024-02-03T15:28:11.208Z,8.70
2024-02-03T15:29:43.149Z,8.70
2024-02-03T15:31:16.211Z,8.70
2024-02-03T15:32:48.362Z,8.70
2024-02-03T15:34:21.641Z,8.70
2024-02-03T15:35:54.989Z,8.70
2024-02-03T15:37:27.968Z,8.70
2024-02-03T15:38:59.978Z,8.70
2024-02-03T15:40:32.883Z,8.60
2024-02-03T15:42:05.504Z,8.70
2024-02-03T15:43:40.238Z,8.70
2024-02-03T15:45:12.463Z,8.70
2024-02-03T15:46:47.314Z,8.70
2024-02-03T15:48:22.232Z,8.70
2024-02-03T15:49:55.470Z,8.70
2024-02-03T15:51:29.024Z,8.60
2024-02-03T15:53:03.356Z,8.60
2024-02-03T15:54:35.194Z,8.60
2024-02-03T15:56:08.828Z,8.60
2024-02-03T15:57:41.232Z,8.60
2024-02-03T15:59:15.114Z,8.60
2024-02-03T16:00:47.585Z,8.60
2024-02-03T16:02:23.224Z,8.60
2024-02-03T16:03:58.145Z,8.60
2024-02-03T16:05:31.213Z,8.60
2024-02-03T16:07:04.959Z,8.60
2024-02-03T16:08:37.999Z,8.50
2024-02-03T16:10:12.623Z,8.50
2024-02-03T16:11:45.791Z,8.50
2024-02-03T16:13:18.078Z,8.50
2024-02-03T16:14:53.841Z,8.50
2024-02-03T16:16:26.170Z,8.50
2024-02-03T16:17:59.178Z,8.50
2024-02-03T16:19:31.506Z,8.50
2024-02-03T16:21:04.715Z,8.50
2024-02-03T16:22:38.128Z,8.50
2024-02-03T16:24:11.121Z,8.40
2024-02-03T16:25:43.074Z,8.50
2024-02-03T16:27:16.525Z,8.50
2024-02-03T16:28:48.686Z,8.50
2024-02-03T16:30:21.762Z,8.50
2024-02-03T16:31:54.871Z,8.50
2024-02-03T16:33:28.845Z,8.50
2024-02-03T16:35:04.503Z,8.40
2024-02-03T16:36:36.948Z,8.40
2024-02-03T16:38:11.610Z,8.40
2024-02-03T16:39:43.769Z,8.40
2024-02-03T16:41:17.362Z,8.40
2024-02-03T16:42:49.391Z,8.40
2024-02-03T16:44:22.320Z,8.40
2024-02-03T16:45:54.327Z,8.50
2024-02-03T16:47:27.409Z,8.40
2024-02-03T16:49:00.650Z,8.40
2024-02-03T16:50:33.600Z,8.40
2024-02-03T16:52:05.989Z,8.40
2024-02-03T16:53:40.373Z,8.40
2024-02-03T16:55:12.506Z,8.40
2024-02-03T16:56:45.542Z,8.50
2024-02-03T16:58:18.609Z,8.40
2024-02-03T16:59:50.704Z,8.50
2024-02-03T17:01:23.784Z,8.50
2024-02-03T17:02:55.817Z,8.50
2024-02-03T17:04:28.895Z,8.50
2024-02-03T17:06:00.988Z,8.50
2024-02-03T17:07:35.122Z,8.50
2024-02-03T17:09:08.666Z,8.50
2024-02-03T17:10:41.654Z,8.50
2024-02-03T17:12:13.578Z,8.50
2024-02-03T17:13:46.554Z,8.50
2024-02-03T17:15:18.604Z,8.50
2024-02-03T17:16:51.548Z,8.50
2024-02-03T17:18:23.828Z,8.50
2024-02-03T17:19:56.911Z,8.50
2024-02-03T17:21:28.968Z,8.50
2024-02-03T17:23:01.979Z,8.50
2024-02-03T17:24:35.402Z,8.50
2024-02-03T17:26:08.404Z,8.50
2024-02-03T17:27:45.009Z,8.50
2024-02-03T17:29:19.386Z,8.50
2024-02-03T17:30:51.693Z,8.50
2024-02-03T17:32:25.630Z,8.50
2024-02-03T17:33:57.779Z,8.50
2024-02-03T17:35:31.106Z,8.50
2024-02-03T17:37:03.121Z,8.50
2024-02-03T17:38:36.153Z,8.50
2024-02-03T17:40:10.728Z,8.50
2024-02-03T17:41:43.686Z,8.50
2024-02-03T17:43:16.783Z,8.50
2024-02-03T17:44:49.736Z,8.50
2024-02-03T17:46:21.792Z,8.50
2024-02-03T17:47:54.884Z,8.50
2024-02-03T17:49:26.956Z,8.50
2024-02-03T17:51:00.343Z,8.50
2024-02-03T17:52:33.117Z,8.50
2024-02-03T17:54:05.640Z,8.50
2024-02-03T17:55:39.952Z,8.50
2024-02-03T17:57:11.930Z,8.50
2024-02-03T17:58:44.886Z,8.50
2024-02-03T18:00:18.422Z,8.50
2024-02-03T18:01:50.631Z,8.50
2024-02-03T18:03:25.599Z,8.50
2024-02-03T18:04:58.318Z,8.60
2024-02-03T18:06:31.491Z,8.50
2024-02-03T18:08:03.712Z,8.60
2024-02-03T18:09:36.862Z,8.50
2024-02-03T18:11:10.275Z,8.50
2024-02-03T18:12:43.450Z,8.50
2024-02-03T18:14:15.628Z,8.60
2024-02-03T18:15:48.653Z,8.50
2024-02-03T18:17:20.668Z,8.60
2024-02-03T18:18:53.757Z,8.60
2024-02-03T18:20:25.814Z,8.60
2024-02-03T18:21:59.006Z,8.60
2024-02-03T18:23:34.447Z,8.60
2024-02-03T18:25:07.860Z,8.60
2024-02-03T18:26:41.216Z,8.60
2024-02-03T18:28:15.634Z,8.60
2024-02-03T18:29:47.722Z,8.50
2024-02-03T18:31:20.822Z,8.50
2024-02-03T18:32:53.926Z,8.60
2024-02-03T18:34:26.127Z,8.60
2024-02-03T18:35:59.520Z,8.60
2024-02-03T18:37:38.330Z,8.60
2024-02-03T18:39:11.301Z,8.70
2024-02-03T18:40:43.358Z,8.60
2024-02-03T18:42:17.804Z,8.60
2024-02-03T18:43:50.843Z,8.60
2024-02-03T18:45:23.042Z,8.60
2024-02-03T18:46:56.222Z,8.60
2024-02-03T18:48:29.278Z,8.60
2024-02-03T18:50:02.534Z,8.70
2024-02-03T18:51:34.599Z,8.70
2024-02-03T18:53:07.698Z,8.70
2024-02-03T18:54:39.915Z,8.70
2024-02-03T18:56:12.932Z,8.60
2024-02-03T18:57:46.381Z,8.60
2024-02-03T18:59:19.718Z,8.70
2024-02-03T19:00:52.000Z,8.70
2024-02-03T19:02:31.679Z,8.70
2024-02-03T19:04:05.377Z,8.70
2024-02-03T19:05:38.663Z,8.70
2024-02-03T19:07:10.744Z,8.70
2024-02-03T19:08:43.778Z,8.60
2024-02-03T19:10:15.992Z,8.70
2024-02-03T19:11:50.887Z,8.70
2024-02-03T19:13:24.513Z,8.70
2024-02-03T19:14:57.525Z,8.70
2024-02-03T19:16:29.519Z,8.80
2024-02-03T19:18:02.903Z,8.80
2024-02-03T19:19:36.928Z,8.80
2024-02-03T19:21:12.058Z,8.80
2024-02-03T19:22:44.178Z,8.80
2024-02-03T19:24:17.176Z,8.80
2024-02-03T19:25:52.959Z,8.80
2024-02-03T19:27:26.433Z,8.70
2024-02-03T19:29:00.211Z,8.70
2024-02-03T19:30:33.308Z,8.70
2024-02-03T19:32:06.327Z,8.70
2024-02-03T19:33:39.480Z,8.70
2024-02-03T19:35:11.620Z,8.70
2024-02-03T19:36:44.776Z,8.70
2024-02-03T19:38:18.213Z,8.70
2024-02-03T19:39:51.406Z,8.70
2024-02-03T19:41:23.427Z,8.70
2024-02-03T19:42:56.823Z,8.70
2024-02-03T19:44:30.317Z,8.70
2024-02-03T19:46:03.177Z,8.70
2024-02-03T19:47:36.189Z,8.70
2024-02-03T19:49:09.528Z,8.70
2024-02-03T19:50:42.012Z,8.70
2024-02-03T19:52:15.260Z,8.70
2024-02-03T19:53:47.351Z,8.80
2024-02-03T19:55:20.641Z,8.70
2024-02-03T19:56:52.598Z,8.70
2024-02-03T19:58:25.674Z,8.70
2024-02-03T20:00:00.215Z,8.80
2024-02-03T20:01:32.374Z,8.70
2024-02-03T20:03:06.540Z,8.80
2024-02-03T20:04:40.523Z,8.70
2024-02-03T20:06:12.777Z,8.80
2024-02-03T20:07:46.169Z,8.70
2024-02-03T20:09:20.474Z,8.80
2024-02-03T20:10:53.965Z,8.80
2024-02-03T20:12:26.739Z,8.70
2024-02-03T20:13:59.751Z,8.70
2024-02-03T20:15:33.232Z,8.70
2024-02-03T20:17:06.699Z,8.70
2024-02-03T20:18:39.278Z,8.70
2024-02-03T20:20:13.779Z,8.70
2024-02-03T20:21:47.150Z,8.70
2024-02-03T20:23:20.219Z,8.70
2024-02-03T20:24:53.248Z,8.70
2024-02-03T20:26:25.243Z,8.70
2024-02-03T20:27:58.515Z,8.70
2024-02-03T20:29:31.400Z,8.70
2024-02-03T20:31:09.406Z,8.70
2024-02-03T20:32:41.865Z,8.70
2024-02-03T20:34:17.815Z,8.70
2024-02-03T20:35:50.496Z,8.70
2024-02-03T20:37:23.720Z,8.70
2024-02-03T20:38:57.025Z,8.70
2024-02-03T20:40:29.986Z,8.70
2024-02-03T20:42:02.218Z,8.60
2024-02-03T20:43:35.366Z,8.60